Time;durP1;ratioP1;P1;durP2;ratioP2;P2;SDS_P1;SDS_P2;PMS_P1;PMS_P2;Temp;Humidity;BMP_temperature;BMP_pressure;BME280_temperature;BME280_humidity;BME280_pressure;Samples;Min_cycle;Max_cycle;Signal;HPM_P1;HPM_P2
2021/04/16 00:02:59;;;;;;;5.53;1.60;;;;;;;2.95;59.35;103318.56;6072360;29;20257;-72
2021/04/16 00:06:03;;;;;;;3.67;1.70;;;;;;;2.96;59.84;103310.34;6071795;29;20253;-71
2021/04/16 00:09:07;;;;;;;3.73;1.57;;;;;;;2.90;59.63;103307.22;6072373;29;20199;-72
2021/04/16 00:12:11;;;;;;;3.73;1.40;;;;;;;2.79;59.49;103310.66;6071778;29;20225;-72
2021/04/16 00:15:19;;;;;;;3.23;1.67;;;;;;;2.76;60.53;103304.59;6072515;29;20194;-72
2021/04/16 00:18:26;;;;;;;3.57;1.60;;;;;;;2.76;60.15;103296.53;6071177;29;20249;-71
2021/04/16 00:21:30;;;;;;;5.47;1.50;;;;;;;2.83;59.72;103303.19;6071174;29;20216;-72
2021/04/16 00:24:33;;;;;;;2.37;1.47;;;;;;;2.73;60.48;103307.50;6070910;29;20199;-70
2021/04/16 00:27:36;;;;;;;2.37;1.43;;;;;;;2.72;60.28;103298.59;6071866;29;20198;-70
2021/04/16 00:30:44;;;;;;;6.80;1.57;;;;;;;2.85;60.21;103299.44;6054724;29;20216;-71
2021/04/16 00:33:49;;;;;;;2.40;1.40;;;;;;;2.51;60.30;103273.97;6071901;29;20194;-71
2021/04/16 00:36:53;;;;;;;10.57;1.70;;;;;;;2.76;60.20;103304.59;6072020;29;20218;-72
2021/04/16 00:39:56;;;;;;;4.20;1.83;;;;;;;2.76;60.36;103301.91;6071041;29;20356;-72
2021/04/16 00:43:02;;;;;;;5.70;1.70;;;;;;;2.79;60.62;103301.72;6071175;29;20229;-71
2021/04/16 00:46:19;;;;;;;3.73;1.70;;;;;;;2.73;60.63;103300.28;6071856;29;20241;-71
2021/04/16 00:49:28;;;;;;;6.30;1.50;;;;;;;2.75;61.06;103300.22;6071696;29;20267;-71
2021/04/16 00:52:33;;;;;;;8.00;1.87;;;;;;;2.74;61.32;103302.03;6070540;29;20485;-71
2021/04/16 00:55:36;;;;;;;4.00;1.40;;;;;;;2.83;61.07;103295.13;6071512;29;20229;-71
2021/04/16 00:58:40;;;;;;;8.33;1.60;;;;;;;2.83;61.17;103295.13;6070253;29;20531;-71
2021/04/16 01:01:43;;;;;;;5.10;1.60;;;;;;;2.73;61.10;103283.25;6070687;29;20201;-71
2021/04/16 01:04:47;;;;;;;6.17;1.83;;;;;;;2.69;61.83;103281.75;6071466;29;20192;-71
2021/04/16 01:07:52;;;;;;;5.57;1.30;;;;;;;2.78;61.12;103286.47;6071385;29;20262;-71
2021/04/16 01:10:55;;;;;;;3.47;1.50;;;;;;;2.77;61.47;103291.03;6071512;29;20192;-71
2021/04/16 01:13:59;;;;;;;5.13;1.40;;;;;;;2.75;61.73;103286.72;6071185;29;20193;-70
2021/04/16 01:17:03;;;;;;;1.60;1.40;;;;;;;2.76;61.20;103277.66;6070155;29;20446;-71
2021/04/16 01:20:12;;;;;;;7.63;1.70;;;;;;;2.70;61.88;103268.16;6071204;29;20232;-71
2021/04/16 01:23:23;;;;;;;4.63;1.50;;;;;;;2.59;62.24;103248.31;6071726;29;20250;-72
2021/04/16 01:26:32;;;;;;;5.93;1.40;;;;;;;2.53;63.58;103255.88;6070761;29;20191;-71
2021/04/16 01:29:38;;;;;;;8.00;1.67;;;;;;;2.76;63.00;103277.66;6070138;29;20450;-70
2021/04/16 01:32:42;;;;;;;4.83;1.70;;;;;;;2.81;62.83;103280.88;6070993;29;20193;-72
2021/04/16 01:35:45;;;;;;;4.13;1.57;;;;;;;2.80;63.12;103279.19;6069925;29;20540;-71
2021/04/16 01:38:49;;;;;;;4.80;1.47;;;;;;;2.91;63.29;103271.16;6074689;29;20221;-70
2021/04/16 01:41:53;;;;;;;2.70;1.30;;;;;;;2.85;63.60;103282.41;6075204;29;20237;-71
2021/04/16 01:44:56;;;;;;;4.83;1.67;;;;;;;2.88;63.28;103274.09;6075782;29;20201;-72
2021/04/16 01:48:02;;;;;;;5.40;1.53;;;;;;;2.91;63.56;103276.56;6075501;29;20253;-72
2021/04/16 01:51:07;;;;;;;5.10;1.90;;;;;;;2.73;64.27;103267.06;6074906;29;20200;-72
2021/04/16 01:54:13;;;;;;;4.97;1.40;;;;;;;2.76;64.58;103256.09;6074259;29;20191;-72
2021/04/16 01:57:20;;;;;;;1.70;1.57;;;;;;;2.66;64.98;103271.19;6075199;29;20217;-71
2021/04/16 02:00:28;;;;;;;8.90;1.87;;;;;;;2.77;64.94;103269.47;6075155;29;20200;-72
2021/04/16 02:03:31;;;;;;;5.70;1.50;;;;;;;2.72;66.04;103265.38;6074317;29;20399;-71
2021/04/16 02:06:35;;;;;;;8.83;1.80;;;;;;;2.62;66.32;103264.28;6074580;29;20192;-72
2021/04/16 02:09:40;;;;;;;3.20;1.77;;;;;;;2.67;65.91;103254.03;6073891;29;20264;-71
2021/04/16 02:12:44;;;;;;;5.00;1.67;;;;;;;2.72;66.67;103270.75;6073947;29;20357;-72
2021/04/16 02:15:47;;;;;;;3.73;1.40;;;;;;;2.74;66.34;103255.34;6075112;29;20240;-71
2021/04/16 02:18:52;;;;;;;3.40;1.43;;;;;;;2.62;66.30;103229.25;6074664;29;20256;-71
2021/04/16 02:21:55;;;;;;;5.53;1.60;;;;;;;2.62;66.72;103253.50;6074993;29;20191;-71
2021/04/16 02:24:58;;;;;;;4.00;1.80;;;;;;;2.77;66.91;103253.28;6074683;29;20225;-72
2021/04/16 02:28:03;;;;;;;9.73;2.07;;;;;;;2.49;66.92;103227.38;6074806;29;20197;-72
2021/04/16 02:31:06;;;;;;;3.23;1.67;;;;;;;2.67;66.73;103251.34;6074482;29;20270;-71
2021/04/16 02:34:11;;;;;;;6.23;1.50;;;;;;;2.59;67.13;103248.31;6074125;29;20200;-70
2021/04/16 02:37:17;;;;;;;5.90;1.33;;;;;;;2.46;68.42;103261.78;6074265;29;20269;-73
2021/04/16 02:40:23;;;;;;;8.13;1.90;;;;;;;2.39;68.10;103241.59;6073367;29;20209;-72
2021/04/16 02:43:27;;;;;;;4.63;1.53;;;;;;;2.35;68.95;103246.34;6073306;29;20244;-71
2021/04/16 02:46:32;;;;;;;7.70;1.80;;;;;;;2.28;67.90;103210.03;6074293;29;20193;-71
2021/04/16 02:49:35;;;;;;;2.47;1.47;;;;;;;2.42;68.64;103247.66;6072318;29;20443;-71
2021/04/16 02:52:38;;;;;;;4.27;1.80;;;;;;;2.61;68.09;103249.94;6073966;29;20191;-71
2021/04/16 02:55:41;;;;;;;3.10;2.00;;;;;;;2.56;68.68;103232.34;6074175;29;20191;-71
2021/04/16 02:58:45;;;;;;;7.23;1.47;;;;;;;2.56;68.78;103238.63;6072783;29;20440;-71
2021/04/16 03:01:49;;;;;;;4.80;1.60;;;;;;;2.59;68.61;103240.25;6073341;29;20194;-72
2021/04/16 03:04:53;;;;;;;5.67;1.43;;;;;;;2.54;68.83;103236.00;6074098;29;20200;-71
2021/04/16 03:07:56;;;;;;;7.17;1.77;;;;;;;2.54;69.01;103241.41;6072771;29;20195;-71
2021/04/16 03:10:59;;;;;;;4.90;1.50;;;;;;;2.64;68.90;103241.66;6072724;29;20266;-71
2021/04/16 03:14:04;;;;;;;6.07;1.47;;;;;;;2.47;69.41;103240.13;6073734;29;20192;-71
2021/04/16 03:17:08;;;;;;;5.23;1.40;;;;;;;2.54;68.98;103241.41;6073384;29;20200;-72
2021/04/16 03:20:13;;;;;;;4.67;1.33;;;;;;;2.46;69.25;103243.78;6073592;29;20194;-72
2021/04/16 03:23:16;;;;;;;1.63;1.43;;;;;;;2.63;68.91;103244.44;6073890;29;20193;-71
2021/04/16 03:26:21;;;;;;;3.10;1.53;;;;;;;2.49;69.05;103248.09;6073067;29;20265;-72
2021/04/16 03:29:25;;;;;;;8.63;1.80;;;;;;;2.58;69.54;103238.50;6073662;29;20204;-72
2021/04/16 03:32:28;;;;;;;6.63;2.03;;;;;;;2.57;69.62;103252.97;6072263;29;20197;-72
2021/04/16 03:35:32;;;;;;;2.60;1.40;;;;;;;2.45;69.32;103242.06;6073073;29;20222;-72
2021/04/16 03:38:35;;;;;;;2.80;1.57;;;;;;;2.56;69.31;103243.13;6073288;29;20256;-71
2021/04/16 03:41:39;;;;;;;1.53;1.40;;;;;;;2.44;68.93;103229.53;6072539;29;20272;-71
2021/04/16 03:44:42;;;;;;;4.93;1.93;;;;;;;2.23;70.62;103247.22;6071886;29;20484;-71
2021/04/16 03:47:47;;;;;;;3.13;1.50;;;;;;;2.24;70.93;103248.91;6072826;29;20237;-71
2021/04/16 03:50:50;;;;;;;7.10;1.60;;;;;;;2.31;70.84;103255.59;6072594;29;20223;-70
2021/04/16 03:53:54;;;;;;;2.00;1.80;;;;;;;2.29;70.59;103252.16;6071692;29;20537;-71
2021/04/16 03:56:57;;;;;;;5.90;1.37;;;;;;;2.44;70.97;103253.78;6071781;29;20224;-72
2021/04/16 04:00:01;;;;;;;5.83;1.77;;;;;;;2.34;71.04;103255.41;6071606;29;20288;-71
2021/04/16 04:03:13;;;;;;;3.07;1.50;;;;;;;2.47;70.37;103255.41;6071603;29;20236;-71
2021/04/16 04:06:16;;;;;;;5.03;1.50;;;;;;;2.54;70.55;103248.66;6071620;29;20375;-71
2021/04/16 04:09:21;;;;;;;5.53;1.50;;;;;;;2.47;70.70;103261.66;6072953;29;20197;-70
2021/04/16 04:12:27;;;;;;;2.97;2.00;;;;;;;2.49;70.57;103265.13;6072789;29;20265;-71
2021/04/16 04:15:30;;;;;;;3.60;1.63;;;;;;;2.35;71.31;103246.34;6071394;29;20437;-72
2021/04/16 04:18:34;;;;;;;5.00;1.90;;;;;;;2.44;71.39;103245.72;6054609;29;20228;-71
2021/04/16 04:21:37;;;;;;;1.43;1.33;;;;;;;2.62;70.26;103250.81;6072549;29;20198;-72
2021/04/16 04:24:40;;;;;;;5.37;1.80;;;;;;;2.62;70.62;103242.72;6072383;29;20268;-72
2021/04/16 04:27:44;;;;;;;8.07;1.77;;;;;;;2.71;70.23;103242.06;6054573;29;20495;-72
2021/04/16 04:30:48;;;;;;;3.90;1.90;;;;;;;2.81;70.48;103248.53;6072201;29;20232;-71
2021/04/16 04:33:51;;;;;;;5.40;1.63;;;;;;;2.67;70.57;103240.56;6071675;29;20192;-71
2021/04/16 04:36:56;;;;;;;6.50;1.80;;;;;;;2.70;70.46;103245.72;6071849;29;20190;-71
2021/04/16 04:39:59;;;;;;;1.60;1.50;;;;;;;2.84;70.63;103237.53;6071752;29;20238;-71
2021/04/16 04:43:02;;;;;;;2.63;1.77;;;;;;;2.82;70.36;103243.03;6046226;29;20308;-71
2021/04/16 04:46:06;;;;;;;4.63;1.80;;;;;;;2.76;71.08;103250.69;6047864;29;20193;-72
2021/04/16 04:49:10;;;;;;;6.67;1.80;;;;;;;2.76;70.96;103245.28;6048663;29;20277;-71
2021/04/16 04:52:16;;;;;;;1.90;1.40;;;;;;;2.69;71.15;103228.72;6048687;29;20193;-71
2021/04/16 04:55:22;;;;;;;9.47;1.87;;;;;;;2.78;71.88;103244.22;6046684;29;20240;-71
2021/04/16 04:58:25;;;;;;;3.37;1.50;;;;;;;2.93;70.71;103247.66;6047364;29;20244;-71
2021/04/16 05:01:29;;;;;;;1.53;1.30;;;;;;;2.86;71.55;103247.25;6048050;29;20278;-71
2021/04/16 05:04:32;;;;;;;1.93;1.63;;;;;;;2.89;70.81;103251.56;6047229;29;20201;-71
2021/04/16 05:07:35;;;;;;;2.13;1.47;;;;;;;2.84;71.36;103243.78;6048204;29;20287;-71
2021/04/16 05:10:38;;;;;;;3.07;1.70;;;;;;;2.99;70.76;103249.91;6047282;29;20220;-71
2021/04/16 05:13:41;;;;;;;7.70;2.10;;;;;;;2.91;71.00;103249.59;6047702;29;20225;-72
2021/04/16 05:16:46;;;;;;;3.27;1.40;;;;;;;2.97;71.33;103257.25;6047024;29;20485;-71
2021/04/16 05:19:49;;;;;;;5.50;1.60;;;;;;;3.05;70.67;103257.59;6047427;29;20270;-72
2021/04/16 05:22:52;;;;;;;6.43;1.77;;;;;;;3.15;70.92;103264.03;6048064;29;20256;-71
2021/04/16 05:25:56;;;;;;;5.77;2.13;;;;;;;3.20;70.35;103256.47;6047645;29;20222;-71
2021/04/16 05:28:59;;;;;;;5.07;1.70;;;;;;;3.32;70.52;103260.13;6046949;29;20449;-71
2021/04/16 05:32:04;;;;;;;2.43;1.70;;;;;;;3.43;70.02;103258.38;6047765;29;20260;-71
2021/04/16 05:35:09;;;;;;;4.97;1.67;;;;;;;3.51;70.29;103255.97;6047990;29;20212;-72
2021/04/16 05:38:14;;;;;;;8.83;1.70;;;;;;;3.54;70.00;103261.16;6046771;29;20417;-71
2021/04/16 05:41:18;;;;;;;4.10;1.77;;;;;;;3.46;70.48;103258.16;6051816;29;20237;-72
2021/04/16 05:44:21;;;;;;;4.77;1.57;;;;;;;3.49;69.97;103263.31;6071035;29;20256;-71
2021/04/16 05:47:25;;;;;;;3.73;1.80;;;;;;;3.56;69.64;103259.19;6070830;29;20197;-71
2021/04/16 05:50:28;;;;;;;6.97;2.07;;;;;;;3.57;70.19;103258.19;6069959;29;20199;-71
2021/04/16 05:53:35;;;;;;;4.90;2.50;;;;;;;3.69;69.13;103257.31;6071305;29;20202;-72
2021/04/16 05:56:40;;;;;;;3.07;1.80;;;;;;;3.72;69.53;103254.38;6069818;29;20422;-72
2021/04/16 05:59:44;;;;;;;5.37;1.60;;;;;;;3.67;70.17;103259.25;6070594;29;20234;-72
2021/04/16 06:02:48;;;;;;;5.63;1.80;;;;;;;3.84;68.97;103257.13;6071164;29;20258;-71
2021/04/16 06:05:52;;;;;;;6.37;1.90;;;;;;;3.99;68.55;103261.38;6069836;29;20449;-72
2021/04/16 06:08:55;;;;;;;6.13;1.70;;;;;;;3.98;68.87;103244.31;6070097;29;20199;-71
2021/04/16 06:11:59;;;;;;;15.03;2.00;;;;;;;4.20;67.87;103255.22;6070788;29;20198;-72
2021/04/16 06:15:03;;;;;;;9.10;1.80;;;;;;;4.29;67.91;103250.94;6069596;29;20191;-71
2021/04/16 06:18:08;;;;;;;9.73;1.80;;;;;;;3.78;67.90;103162.09;6070552;29;20198;-72
2021/04/16 06:21:11;;;;;;;5.13;1.70;;;;;;;4.49;67.71;103255.69;6070494;29;20200;-72
2021/04/16 06:24:14;;;;;;;4.43;1.80;;;;;;;4.46;68.21;103255.91;6072212;29;20215;-73
2021/04/16 06:27:18;;;;;;;4.60;1.90;;;;;;;4.34;67.84;103221.72;6073928;29;20193;-72
2021/04/16 06:30:22;;;;;;;4.60;1.40;;;;;;;4.61;67.03;103252.03;6073897;29;20402;-72
2021/04/16 06:33:28;;;;;;;2.70;1.57;;;;;;;4.79;66.46;103256.00;6074687;29;20241;-71
2021/04/16 06:36:32;;;;;;;2.93;1.70;;;;;;;4.96;66.19;103249.22;6073519;29;20535;-71
2021/04/16 06:39:35;;;;;;;7.10;1.60;;;;;;;5.08;65.75;103250.97;6074564;29;20223;-71
2021/04/16 06:42:39;;;;;;;5.37;1.90;;;;;;;5.24;65.52;103256.00;6074507;29;20244;-71
2021/04/16 06:45:43;;;;;;;10.63;1.43;;;;;;;5.38;65.28;103250.31;6074176;29;20223;-71
2021/04/16 06:48:47;;;;;;;5.77;1.80;;;;;;;5.43;65.20;103239.97;6074224;29;20276;-71
2021/04/16 06:51:59;;;;;;;4.63;1.57;;;;;;;5.83;63.69;103251.09;6073249;29;20194;-71
2021/04/16 06:55:11;;;;;;;7.10;2.20;;;;;;;5.99;62.79;103247.00;6074354;29;20182;-71
2021/04/16 06:58:18;;;;;;;1.53;1.40;;;;;;;6.26;62.14;103250.09;6073586;29;20194;-70
2021/04/16 07:01:28;;;;;;;3.17;1.70;;;;;;;6.44;61.12;103247.66;6074026;29;20192;-71
2021/04/16 07:04:41;;;;;;;2.13;1.40;;;;;;;6.56;61.03;103234.88;6073171;29;20182;-71
2021/04/16 07:07:48;;;;;;;4.93;1.60;;;;;;;6.61;61.08;103232.63;6072985;29;20403;-71
2021/04/16 07:10:52;;;;;;;;;;;;;;;6.59;60.32;103245.47;6073182;29;20503;-72
2021/04/16 07:13:56;;;;;;;;;;;;;;;6.64;60.89;103237.78;6074304;29;19982;-71
2021/04/16 07:17:00;;;;;;;1.55;1.35;;;;;;;6.67;60.37;103242.97;6073302;29;19962;-71
2021/04/16 07:20:06;;;;;;;1.90;1.80;;;;;;;6.64;60.58;103237.78;6072279;29;20525;-72
2021/04/16 07:23:10;;;;;;;7.80;1.50;;;;;;;6.68;60.07;103228.38;6073381;29;20194;-71
2021/04/16 07:26:24;;;;;;;3.33;1.40;;;;;;;6.86;59.90;103240.34;6073486;29;20194;-72
2021/04/16 07:29:38;;;;;;;;;;;;;;;6.81;59.60;103231.75;6056791;29;20265;-72
2021/04/16 07:32:43;;;;;;;;;;;;;;;6.84;59.27;103234.19;6073588;29;19978;-72
2021/04/16 07:35:47;;;;;;;;;;;;;;;6.90;59.51;103233.66;6072801;29;19962;-72
2021/04/16 07:38:59;;;;;;;;;;;;;;;6.90;59.35;103234.53;6073039;29;19959;-71
2021/04/16 07:42:19;;;;;;;;;;;;;;;7.00;58.35;103234.56;6072677;29;19924;-71
2021/04/16 07:45:50;;;;;;;3.30;1.60;;;;;;;7.07;58.17;103230.31;6044500;29;19919;-71
2021/04/16 07:48:54;;;;;;;8.53;1.70;;;;;;;7.13;58.56;103246.06;6030054;29;20431;-71
2021/04/16 07:52:20;;;;;;;5.17;1.60;;;;;;;7.22;58.71;103226.22;6072320;29;20195;-72
2021/04/16 07:55:26;;;;;;;5.20;1.30;;;;;;;7.20;58.36;103214.63;6072795;29;20191;-72
2021/04/16 07:58:29;;;;;;;5.40;1.53;;;;;;;7.34;58.21;103241.44;6072428;29;20265;-71
2021/04/16 08:01:34;;;;;;;4.55;1.30;;;;;;;7.40;58.06;103243.56;6071446;29;20385;-70
2021/04/16 08:04:37;;;;;;;6.75;1.67;;;;;;;7.47;58.19;103250.16;6072170;29;20257;-72
2021/04/16 08:07:42;;;;;;;6.55;1.38;;;;;;;7.35;57.85;103202.38;6071389;29;20538;-72
2021/04/16 08:10:47;;;;;;;2.67;1.65;;;;;;;7.44;57.48;103217.88;6072273;29;20194;-72
2021/04/16 08:14:03;;;;;;;3.03;1.77;;;;;;;7.75;57.21;103253.13;6071962;29;20257;-72
2021/04/16 08:17:17;;;;;;;10.10;1.70;;;;;;;7.83;57.11;103245.13;6071862;29;20198;-71
2021/04/16 08:20:28;;;;;;;;;;;;;;;7.85;54.86;103241.25;6071364;29;20144;-71
2021/04/16 08:23:48;;;;;;;;;;;;;;;8.01;54.18;103240.69;6071373;29;20092;-71
2021/04/16 08:27:00;;;;;;;;;;;;;;;8.14;53.68;103239.41;6071716;29;19977;-70
2021/04/16 08:30:11;;;;;;;3.45;1.15;;;;;;;7.99;52.49;103229.94;6070707;29;20420;-71
2021/04/16 08:33:38;;;;;;;2.33;1.10;;;;;;;8.26;51.64;103245.56;6070658;29;20214;-71
2021/04/16 08:36:43;;;;;;;;;;;;;;;8.33;51.81;103243.16;6072055;29;20052;-72
2021/04/16 08:39:48;;;;;;;2.15;1.40;;;;;;;8.35;51.93;103250.16;6070851;29;20256;-71
2021/04/16 08:42:51;;;;;;;1.15;1.10;;;;;;;8.43;51.15;103241.28;6070750;29;20544;-71
2021/04/16 08:45:56;;;;;;;2.42;1.23;;;;;;;8.44;51.64;103246.59;6071185;29;20222;-71
2021/04/16 08:49:08;;;;;;;1.42;1.30;;;;;;;8.55;51.88;103242.84;6070925;29;20131;-71
2021/04/16 08:52:17;;;;;;;1.20;1.10;;;;;;;8.57;51.28;103241.69;6071046;29;20249;-72
2021/04/16 08:55:29;;;;;;;2.58;1.05;;;;;;;8.54;51.66;103233.81;6071740;29;20257;-72
2021/04/16 08:58:34;;;;;;;6.00;1.27;;;;;;;8.49;49.54;103233.41;6071459;29;20247;-72
2021/04/16 09:01:47;;;;;;;3.45;1.10;;;;;;;8.45;49.57;103220.25;6069997;29;20293;-72
2021/04/16 09:05:16;;;;;;;2.65;1.20;;;;;;;8.68;49.54;103236.06;6070483;29;20186;-71
2021/04/16 09:08:42;;;;;;;1.30;1.20;;;;;;;8.77;49.54;103235.22;6071479;29;20257;-71
2021/04/16 09:11:54;;;;;;;4.00;1.90;;;;;;;8.85;49.65;103239.06;6070176;29;20541;-72
2021/04/16 09:14:57;;;;;;;;;;;;;;;8.89;48.93;103235.88;6071679;29;20226;-72
2021/04/16 09:18:11;;;;;;;;;;;;;;;8.89;48.41;103229.56;6071571;29;19920;-71
2021/04/16 09:21:25;;;;;;;;;;;;;;;8.92;47.17;103232.00;6070554;29;19958;-71
2021/04/16 09:24:43;;;;;;;;;;;;;;;9.03;46.62;103227.25;6071296;29;19983;-72
2021/04/16 09:27:50;;;;;;;2.80;1.10;;;;;;;8.94;46.47;103232.69;6071571;29;19958;-71
2021/04/16 09:30:55;;;;;;;10.32;1.30;;;;;;;8.97;46.18;103227.81;6070452;29;20194;-70
2021/04/16 09:34:08;;;;;;;3.22;1.42;;;;;;;9.08;45.20;103232.22;6069536;29;20190;-71
2021/04/16 09:37:15;;;;;;;;;;;;;;;9.11;44.70;103240.13;6054221;29;20205;-72
2021/04/16 09:40:30;;;;;;;;;;;;;;;9.14;45.54;103237.09;6070745;29;20020;-71
2021/04/16 09:43:34;;;;;;;;;;;;;;;9.21;44.13;103232.75;6070865;29;20003;-72
2021/04/16 09:46:44;;;;;;;;;;;;;;;9.15;43.94;103241.50;6071032;29;19920;-71
2021/04/16 09:49:57;;;;;;;1.45;1.30;;;;;;;9.28;42.50;103236.59;6069780;29;20219;-71
2021/04/16 09:53:12;;;;;;;;;;;;;;;9.25;41.94;103232.28;6070989;29;20221;-71
2021/04/16 09:56:17;;;;;;;;;;;;;;;9.24;41.38;103240.63;6071458;29;20003;-71
2021/04/16 09:59:29;;;;;;;;;;;;;;;9.32;40.72;103232.56;6073941;29;19975;-72
2021/04/16 10:02:38;;;;;;;1.10;1.10;;;;;;;9.30;40.67;103224.53;6073833;29;20226;-71
2021/04/16 10:05:42;;;;;;;1.23;1.23;;;;;;;9.27;41.06;103229.44;6075185;29;20235;-71
2021/04/16 10:09:01;;;;;;;1.77;1.20;;;;;;;9.35;40.71;103232.25;6074905;29;20230;-72
2021/04/16 10:12:15;;;;;;;3.15;1.23;;;;;;;9.36;40.98;103217.63;6075150;29;20210;-72
2021/04/16 10:15:24;;;;;;;3.40;1.10;;;;;;;9.45;40.00;103222.16;6075166;29;20198;-72
2021/04/16 10:18:29;;;;;;;;;;;;;;;9.43;40.17;103229.63;6074165;29;19962;-71
2021/04/16 10:21:32;;;;;;;;;;;;;;;9.47;40.97;103211.97;6074966;29;19926;-72
2021/04/16 12:39:40;;;;;;;;;;;;;;;10.97;34.73;103183.59;6071260;29;19990;-71
2021/04/16 12:42:42;;;;;;;;;;;;;;;11.08;34.30;103183.31;6071215;29;20211;-72
2021/04/16 12:45:46;;;;;;;;;;;;;;;10.89;34.94;103178.06;6071922;29;19919;-73
2021/04/16 12:48:50;;;;;;;;;;;;;;;10.90;35.37;103178.94;6071738;29;19968;-71
2021/04/16 12:51:53;;;;;;;;;;;;;;;10.86;35.16;103172.94;6072113;29;19983;-71
2021/04/16 12:54:55;;;;;;;;;;;;;;;10.98;35.78;103171.66;6070888;29;20226;-71
2021/04/16 12:58:01;;;;;;;1.00;1.00;;;;;;;10.93;35.71;103168.56;6070343;29;20297;-71
2021/04/16 13:01:06;;;;;;;1.00;0.88;;;;;;;10.89;35.90;103156.22;6054190;29;20222;-71
2021/04/16 13:04:20;;;;;;;1.00;1.00;;;;;;;10.99;36.39;103173.34;6070189;29;20420;-71
2021/04/16 13:07:24;;;;;;;1.88;1.25;;;;;;;10.86;35.87;103145.63;6070185;29;20376;-71
2021/04/16 13:10:27;;;;;;;1.30;1.05;;;;;;;11.10;34.93;103164.88;6071088;29;20194;-72
2021/04/16 13:13:30;;;;;;;4.90;1.10;;;;;;;10.96;36.70;103165.50;6071266;29;20014;-71
2021/04/16 13:16:35;;;;;;;2.17;1.30;;;;;;;11.02;36.99;103156.63;6070809;29;20261;-72
2021/04/16 13:19:42;;;;;;;3.60;1.30;;;;;;;11.13;36.76;103153.63;6070465;29;20388;-72
2021/04/16 13:22:56;;;;;;;1.45;1.42;;;;;;;11.06;37.17;103141.66;6071433;29;20229;-72
2021/04/16 13:25:59;;;;;;;1.17;1.10;;;;;;;11.06;36.98;103136.19;6070614;29;20233;-71
2021/04/16 13:29:03;;;;;;;6.97;1.10;;;;;;;11.13;37.14;103126.28;6070978;29;20190;-72
2021/04/16 13:32:10;;;;;;;3.03;1.60;;;;;;;11.11;36.92;103128.34;6071481;29;20261;-72
2021/04/16 13:35:18;;;;;;;1.40;1.40;;;;;;;11.11;36.65;103122.88;6074992;29;20261;-71
2021/04/16 13:38:23;;;;;;;1.02;1.00;;;;;;;11.12;37.52;103124.56;6076030;29;20198;-72
2021/04/16 13:41:28;;;;;;;1.73;1.25;;;;;;;11.20;37.22;103121.88;6075010;29;20249;-71
2021/04/16 13:44:44;;;;;;;3.58;1.73;;;;;;;11.19;37.15;103125.66;6076962;29;20191;-72
2021/04/16 13:47:48;;;;;;;2.63;1.20;;;;;;;11.27;37.67;103117.44;6075766;29;20208;-71
2021/04/16 13:50:52;;;;;;;1.20;1.20;;;;;;;11.44;37.73;103125.69;6074502;29;20458;-71
2021/04/16 13:53:55;;;;;;;1.65;1.10;;;;;;;11.41;38.34;103106.88;6075663;29;20231;-71
2021/04/16 13:56:59;;;;;;;3.45;1.40;;;;;;;11.47;38.61;103106.22;6074506;29;20194;-72
2021/04/16 14:00:02;;;;;;;2.75;1.38;;;;;;;11.57;37.69;103106.91;6075599;29;20266;-72
2021/04/16 14:03:26;;;;;;;1.85;1.27;;;;;;;11.48;37.17;103102.47;6074152;29;20364;-72
2021/04/16 14:06:34;;;;;;;;;;;;;;;11.44;37.54;103095.63;6075115;29;20191;-73
2021/04/16 14:09:40;;;;;;;;;;;;;;;11.45;37.39;103102.81;6075566;29;19959;-72
2021/04/16 14:12:43;;;;;;;;;;;;;;;11.42;37.48;103103.16;6074422;29;19924;-72
2021/04/16 14:15:46;;;;;;;;;;;;;;;11.41;37.37;103101.41;6074738;29;20053;-71
2021/04/16 14:18:49;;;;;;;;;;;;;;;11.36;37.61;103087.41;6075047;29;19920;-71
2021/04/16 14:21:55;;;;;;;;;;;;;;;11.40;37.61;103083.31;6075276;29;19919;-72
2021/04/16 14:24:59;;;;;;;;;;;;;;;11.50;37.86;103089.50;6074975;29;19920;-71
2021/04/16 14:28:03;;;;;;;;;;;;;;;11.64;37.27;103086.06;6075111;29;19968;-70
2021/04/16 14:31:13;;;;;;;;;;;;;;;11.55;37.39;103084.38;6074281;29;19960;-72
2021/04/16 14:34:17;;;;;;;;;;;;;;;11.58;37.60;103079.41;6074354;29;19923;-72
2021/04/16 14:37:21;;;;;;;;;;;;;;;11.65;37.27;103087.78;6074068;29;19959;-70
2021/04/16 14:40:25;;;;;;;;;;;;;;;11.44;37.60;103090.16;6074781;29;19968;-72
2021/04/16 14:43:28;;;;;;;;;;;;;;;11.43;38.33;103088.47;6075447;29;19990;-71
2021/04/16 14:46:32;;;;;;;;;;;;;;;11.42;37.34;103087.59;6073988;29;19942;-72
2021/04/16 14:49:36;;;;;;;;;;;;;;;11.55;36.94;103081.63;6073249;29;19920;-71
2021/04/16 14:52:40;;;;;;;;;;;;;;;11.48;37.26;103075.13;6073978;29;19968;-71
2021/04/16 14:55:44;;;;;;;;;;;;;;;11.47;37.39;103078.88;6074220;29;19983;-71
2021/04/16 14:58:48;;;;;;;;;;;;;;;11.33;37.73;103083.13;6074186;29;19919;-71
2021/04/16 15:01:52;;;;;;;;;;;;;;;11.27;38.08;103073.72;6074366;29;19920;-72
2021/04/16 15:04:55;;;;;;;;;;;;;;;11.30;37.99;103078.84;6073734;29;19920;-71
2021/04/16 15:08:01;;;;;;;;;;;;;;;11.41;37.73;103074.09;6074264;29;19920;-71
2021/04/16 15:11:05;;;;;;;;;;;;;;;11.37;37.49;103075.47;6073888;29;19919;-71
2021/04/16 15:14:12;;;;;;;;;;;;;;;11.28;37.44;103075.44;6073902;29;19942;-72
2021/04/16 15:17:15;;;;;;;;;;;;;;;11.21;37.40;103063.47;6073782;29;19920;-72
2021/04/16 15:20:20;;;;;;;;;;;;;;;11.19;37.46;103075.59;6074037;29;19926;-72
2021/04/16 15:23:24;;;;;;;;;;;;;;;11.13;36.89;103068.91;6073805;29;19919;-72
2021/04/16 15:26:27;;;;;;;;;;;;;;;11.15;36.98;103066.88;6072549;29;19919;-72
2021/04/16 15:29:32;;;;;;;;;;;;;;;11.14;37.80;103075.25;6072530;29;20000;-72
2021/04/16 15:32:54;;;;;;;;;;;;;;;11.09;37.34;103063.97;6072634;29;19944;-72
2021/04/16 15:46:16;;;;;;;;;;;;;;;10.94;37.64;103071.91;6073342;29;19920;-72
2021/04/16 15:49:18;;;;;;;;;;;;;;;11.12;37.71;103067.19;6072999;29;19998;-72
2021/04/16 15:52:21;;;;;;;;;;;;;;;11.00;36.97;103071.25;6072083;29;19958;-71
2021/04/16 15:55:25;;;;;;;;;;;;;;;10.93;37.90;103070.22;6071727;29;20019;-72
2021/04/16 15:58:31;;;;;;;;;;;;;;;11.01;37.25;103083.91;6071699;29;19920;-72
2021/04/16 16:01:34;;;;;;;;;;;;;;;10.87;36.20;103080.94;6071577;29;20007;-71
2021/04/16 16:04:37;;;;;;;;;;;;;;;10.95;36.14;103078.25;6072476;29;19919;-72
2021/04/16 16:07:41;;;;;;;;;;;;;;;10.86;36.52;103082.81;6071496;29;19955;-72
2021/04/16 16:10:46;;;;;;;;;;;;;;;10.85;35.25;103083.84;6072534;29;19927;-71
2021/04/16 16:13:49;;;;;;;;;;;;;;;10.88;34.90;103083.53;6072643;29;19942;-72
2021/04/16 16:16:53;;;;;;;;;;;;;;;10.82;35.53;103084.16;6072614;29;19955;-71
2021/04/16 16:20:14;;;;;;;;;;;;;;;10.84;34.76;103082.13;6072424;29;19919;-71
2021/04/16 16:23:48;;;;;;;;;;;;;;;10.75;35.74;103083.13;6071839;29;20142;-71
2021/04/16 16:26:54;;;;;;;;;;;;;;;10.80;34.54;103080.75;6071296;29;20106;-71
2021/04/16 16:29:57;;;;;;;;;;;;;;;10.75;35.17;103082.25;6071305;29;19919;-73
2021/04/16 16:33:01;;;;;;;;;;;;;;;10.74;34.67;103086.84;6072253;29;19983;-71
2021/04/16 16:36:04;;;;;;;;;;;;;;;10.75;35.31;103083.13;6071148;29;20107;-71
2021/04/16 16:39:07;;;;;;;;;;;;;;;10.70;35.54;103090.94;6071952;29;19959;-72
2021/04/16 16:42:17;;;;;;;;;;;;;;;10.61;34.91;103086.44;6071725;29;19927;-72
2021/04/16 16:45:21;;;;;;;;;;;;;;;10.52;35.78;103093.75;6072153;29;20170;-72
2021/04/16 16:48:24;;;;;;;;;;;;;;;10.59;36.07;103080.31;6070741;29;19927;-71
2021/04/16 16:51:29;;;;;;;6.03;1.58;;;;;;;10.59;36.10;103083.03;6071332;29;20032;-71
2021/04/16 16:54:32;;;;;;;1.52;1.42;;;;;;;10.46;36.19;103088.94;6070394;29;20477;-71
2021/04/16 16:57:36;;;;;;;2.72;1.70;;;;;;;10.35;35.76;103075.56;6070356;29;20437;-72
2021/04/16 17:00:43;;;;;;;1.40;1.40;;;;;;;10.45;35.96;103094.56;6070270;29;20492;-71
2021/04/16 17:03:50;;;;;;;4.50;1.27;;;;;;;10.40;36.36;103088.75;6071374;29;20219;-72
2021/04/16 17:06:53;;;;;;;2.17;1.70;;;;;;;10.35;36.39;103091.09;6071189;29;20197;-72
2021/04/16 17:09:57;;;;;;;;;;;;;;;10.39;36.79;103087.03;6071340;29;20100;-72
2021/04/16 17:13:02;;;;;;;2.40;1.60;;;;;;;10.19;36.77;103097.31;6071575;29;19955;-72
2021/04/16 17:16:09;;;;;;;5.53;1.65;;;;;;;10.23;36.41;103097.81;6071092;29;19926;-71
2021/04/16 17:19:13;;;;;;;;;;;;;;;10.32;36.96;103096.88;6071712;29;20063;-72
2021/04/16 17:22:16;;;;;;;4.82;1.90;;;;;;;10.19;37.03;103101.91;6070689;29;20270;-72